Time;durP1;ratioP1;P1;durP2;ratioP2;P2;SDS_P1;SDS_P2;PMS_P1;PMS_P2;Temp;Humidity;BMP_temperature;BMP_pressure;BME280_temperature;BME280_humidity;BME280_pressure;Samples;Min_cycle;Max_cycle;Signal;HPM_P1;HPM_P2
2021/03/22 00:00:10;;;;;;;2.35;1.17;;;;;;;;;;5110173;28;20343;-68
2021/03/22 00:02:37;;;;;;;1.73;1.63;;;;;;;;;;5107957;28;20036;-68
2021/03/22 00:05:03;;;;;;;1.98;1.77;;;;;;;;;;5107452;28;20438;-68
2021/03/22 00:07:29;;;;;;;1.52;1.00;;;;;;;;;;5107643;28;20027;-68
2021/03/22 00:09:55;;;;;;;1.45;1.35;;;;;;;;;;5108069;28;20057;-68
2021/03/22 00:12:21;;;;;;;1.48;1.20;;;;;;;;;;5107763;28;20040;-68
2021/03/22 00:14:47;;;;;;;1.27;1.17;;;;;;;;;;5108024;28;20022;-68
2021/03/22 00:17:13;;;;;;;1.67;1.25;;;;;;;;;;5107563;28;20027;-68
2021/03/22 00:19:39;;;;;;;3.20;1.75;;;;;;;;;;5107826;28;20051;-68
2021/03/22 00:22:06;;;;;;;2.10;1.60;;;;;;;;;;5106849;28;20027;-68
2021/03/22 00:24:32;;;;;;;2.67;2.10;;;;;;;;;;5107931;28;20035;-68
2021/03/22 00:26:58;;;;;;;1.45;1.35;;;;;;;;;;5106978;28;20106;-68
2021/03/22 00:29:24;;;;;;;1.83;1.35;;;;;;;;;;5107243;28;20032;-68
2021/03/22 00:31:50;;;;;;;2.35;1.50;;;;;;;;;;5107927;28;20023;-68
2021/03/22 00:34:16;;;;;;;1.75;1.42;;;;;;;;;;5106639;28;20034;-68
2021/03/22 00:36:42;;;;;;;2.13;1.33;;;;;;;;;;5111709;28;20028;-68
2021/03/22 00:39:08;;;;;;;1.98;1.55;;;;;;;;;;5118332;27;20033;-68
2021/03/22 00:41:34;;;;;;;2.00;1.80;;;;;;;;;;5130670;27;20023;-68
2021/03/22 00:44:00;;;;;;;1.42;1.20;;;;;;;;;;5131010;27;20030;-68
2021/03/22 00:46:27;;;;;;;2.10;1.90;;;;;;;;;;5131986;27;20019;-68
2021/03/22 00:48:53;;;;;;;1.63;1.40;;;;;;;;;;5131726;27;20069;-68
2021/03/22 00:51:19;;;;;;;1.80;1.00;;;;;;;;;;5129603;27;20035;-68
2021/03/22 00:53:45;;;;;;;1.30;1.20;;;;;;;;;;5131978;27;20042;-68
2021/03/22 00:56:11;;;;;;;1.35;1.25;;;;;;;;;;5131211;27;20023;-68
2021/03/22 00:58:37;;;;;;;1.50;1.40;;;;;;;;;;5130895;27;20043;-68
2021/03/22 01:01:03;;;;;;;1.63;1.40;;;;;;;;;;5129968;27;20080;-68
2021/03/22 01:03:32;;;;;;;1.48;1.27;;;;;;;;;;5131698;27;20505;-68
2021/03/22 01:05:58;;;;;;;2.42;1.20;;;;;;;;;;5131414;27;20034;-68
2021/03/22 01:08:27;;;;;;;1.42;1.10;;;;;;;;;;5131904;27;20100;-68
2021/03/22 01:10:59;;;;;;;2.03;1.73;;;;;;;;;;5130858;27;20031;-68
2021/03/22 01:13:30;;;;;;;1.35;1.25;;;;;;;;;;5131462;27;20480;-68
2021/03/22 01:15:57;;;;;;;3.13;1.10;;;;;;;;;;5115626;27;20444;-68
2021/03/22 01:18:25;;;;;;;0.85;0.85;;;;;;;;;;5111005;28;20078;-68
2021/03/22 01:21:00;;;;;;;1.35;1.17;;;;;;;;;;5110532;28;20115;-68
2021/03/22 01:23:26;;;;;;;1.55;1.42;;;;;;;;;;5110957;28;20492;-68
2021/03/22 01:25:52;;;;;;;4.82;2.08;;;;;;;;;;5110715;28;20027;-68
2021/03/22 01:28:19;;;;;;;1.38;1.23;;;;;;;;;;5109048;28;20044;-68
2021/03/22 01:30:51;;;;;;;1.30;1.20;;;;;;;;;;5110528;28;20032;-68
2021/03/22 01:33:23;;;;;;;1.48;1.38;;;;;;;;;;5109909;28;20031;-68
2021/03/22 01:35:49;;;;;;;1.23;1.13;;;;;;;;;;5110439;28;20031;-68
2021/03/22 01:38:15;;;;;;;1.13;1.02;;;;;;;;;;5110380;28;20034;-68
2021/03/22 01:41:00;;;;;;;1.17;0.80;;;;;;;;;;5109881;28;20490;-68
2021/03/22 01:43:37;;;;;;;1.02;0.95;;;;;;;;;;5111013;28;20051;-68
2021/03/22 01:46:03;;;;;;;1.27;1.20;;;;;;;;;;5109354;28;20024;-68
2021/03/22 01:48:29;;;;;;;1.30;1.20;;;;;;;;;;5110241;28;20088;-68
2021/03/22 01:50:55;;;;;;;1.05;0.90;;;;;;;;;;5109488;28;20035;-68
2021/03/22 01:53:21;;;;;;;1.20;1.10;;;;;;;;;;5109760;28;20016;-68
2021/03/22 01:55:47;;;;;;;1.30;1.20;;;;;;;;;;5110375;28;20031;-68
2021/03/22 01:58:13;;;;;;;1.42;1.33;;;;;;;;;;5110138;27;20019;-68
2021/03/22 02:00:40;;;;;;;1.20;1.10;;;;;;;;;;5129656;27;20031;-68
2021/03/22 02:03:07;;;;;;;2.05;0.98;;;;;;;;;;5130212;27;20027;-68
2021/03/22 02:05:33;;;;;;;1.30;1.20;;;;;;;;;;5130354;27;20186;-68
2021/03/22 02:08:10;;;;;;;1.67;1.33;;;;;;;;;;5129672;27;20027;-68
2021/03/22 02:10:37;;;;;;;1.27;1.02;;;;;;;;;;5129040;27;20019;-68
2021/03/22 02:13:05;;;;;;;1.27;1.02;;;;;;;;;;5129121;27;20051;-68
2021/03/22 02:15:31;;;;;;;1.15;1.15;;;;;;;;;;5130684;27;20397;-68
2021/03/22 02:18:07;;;;;;;1.50;1.40;;;;;;;;;;5130000;27;20020;-68
2021/03/22 02:20:39;;;;;;;0.90;0.90;;;;;;;;;;5129830;27;20393;-68
2021/03/22 02:23:23;;;;;;;1.95;1.80;;;;;;;;;;5128605;27;20106;-68
2021/03/22 02:25:56;;;;;;;1.60;1.40;;;;;;;;;;5129995;27;20389;-68
2021/03/22 02:28:40;;;;;;;0.80;0.73;;;;;;;;;;5128834;27;20123;-68
2021/03/22 02:31:15;;;;;;;1.65;1.55;;;;;;;;;;5129240;27;20438;-68
2021/03/22 02:34:00;;;;;;;1.50;1.40;;;;;;;;;;5129694;27;20057;-68
2021/03/22 02:36:38;;;;;;;4.55;1.40;;;;;;;;;;5130201;27;20027;-68
2021/03/22 02:39:04;;;;;;;1.13;1.02;;;;;;;;;;5128782;27;20493;-68
2021/03/22 02:41:55;;;;;;;0.90;0.77;;;;;;;;;;5129151;27;20034;-68
2021/03/22 02:44:23;;;;;;;2.00;1.30;;;;;;;;;;5129161;27;20038;-68
2021/03/22 02:47:00;;;;;;;1.25;1.02;;;;;;;;;;5129941;27;20034;-68
2021/03/22 02:49:28;;;;;;;1.00;0.80;;;;;;;;;;5129226;27;20322;-68
2021/03/22 02:51:54;;;;;;;2.22;0.98;;;;;;;;;;5129432;27;20110;-68
2021/03/22 02:54:23;;;;;;;1.17;1.08;;;;;;;;;;5128829;27;20082;-68
2021/03/22 02:56:59;;;;;;;1.33;1.17;;;;;;;;;;5129292;27;20469;-68
2021/03/22 02:59:35;;;;;;;0.80;0.80;;;;;;;;;;5127987;27;20035;-68
2021/03/22 03:02:03;;;;;;;1.00;0.90;;;;;;;;;;5128430;27;20398;-68
2021/03/22 03:04:30;;;;;;;1.63;1.17;;;;;;;;;;5129368;27;20035;-68
2021/03/22 03:06:57;;;;;;;0.80;0.77;;;;;;;;;;5128688;27;20114;-68
2021/03/22 03:09:44;;;;;;;2.05;1.00;;;;;;;;;;5129743;27;20777;-68
2021/03/22 03:12:14;;;;;;;1.45;1.00;;;;;;;;;;5127851;27;20027;-68
2021/03/22 03:14:42;;;;;;;1.27;0.98;;;;;;;;;;5129240;27;20023;-68
2021/03/22 03:17:08;;;;;;;0.98;0.93;;;;;;;;;;5127995;27;20538;-68
2021/03/22 03:19:34;;;;;;;0.65;0.60;;;;;;;;;;5128888;27;20123;-68
2021/03/22 03:22:00;;;;;;;2.05;1.65;;;;;;;;;;5128485;27;20027;-68
2021/03/22 03:24:26;;;;;;;1.85;1.73;;;;;;;;;;5128973;27;20389;-68
2021/03/22 03:26:53;;;;;;;1.45;1.35;;;;;;;;;;5127917;27;20023;-68
2021/03/22 03:29:19;;;;;;;1.52;1.42;;;;;;;;;;5127991;27;20054;-68
2021/03/22 03:31:45;;;;;;;0.93;0.90;;;;;;;;;;5128024;27;20504;-68
2021/03/22 03:34:11;;;;;;;1.10;0.90;;;;;;;;;;5128635;27;20106;-68
2021/03/22 03:36:37;;;;;;;1.20;1.10;;;;;;;;;;5128338;27;20026;-68
2021/03/22 03:39:05;;;;;;;1.48;1.15;;;;;;;;;;5127641;27;20537;-68
2021/03/22 03:41:31;;;;;;;1.85;1.52;;;;;;;;;;5128080;27;20102;-68
2021/03/22 03:43:58;;;;;;;1.55;0.80;;;;;;;;;;5129623;27;20031;-68
2021/03/22 03:46:24;;;;;;;1.38;1.35;;;;;;;;;;5128592;28;20114;-68
2021/03/22 03:48:50;;;;;;;1.02;0.82;;;;;;;;;;5128886;28;20372;-68
2021/03/22 03:51:16;;;;;;;0.80;0.80;;;;;;;;;;5127851;28;20412;-68
2021/03/22 03:53:42;;;;;;;4.63;2.08;;;;;;;;;;5129071;28;20027;-68
2021/03/22 03:56:08;;;;;;;2.15;0.95;;;;;;;;;;5128537;28;20031;-68
2021/03/22 03:58:34;;;;;;;2.22;0.88;;;;;;;;;;5126231;28;20099;-68
2021/03/22 04:01:00;;;;;;;0.50;0.50;;;;;;;;;;5127211;28;20027;-68
2021/03/22 04:03:28;;;;;;;0.70;0.70;;;;;;;;;;5127978;28;20071;-68
2021/03/22 04:06:00;;;;;;;0.82;0.77;;;;;;;;;;5128999;28;20095;-68
2021/03/22 04:08:27;;;;;;;0.90;0.90;;;;;;;;;;5128287;28;20040;-68
2021/03/22 04:10:54;;;;;;;0.80;0.80;;;;;;;;;;5130746;27;20031;-68
2021/03/22 04:13:20;;;;;;;1.20;1.10;;;;;;;;;;5131751;27;20031;-68
2021/03/22 04:15:46;;;;;;;1.02;1.02;;;;;;;;;;5132815;27;20031;-68
2021/03/22 04:18:12;;;;;;;0.68;0.68;;;;;;;;;;5131640;27;20023;-68
2021/03/22 04:20:39;;;;;;;0.90;0.82;;;;;;;;;;5131376;27;20055;-68
2021/03/22 04:23:05;;;;;;;0.73;0.73;;;;;;;;;;5131848;27;20084;-68
2021/03/22 04:25:31;;;;;;;0.85;0.75;;;;;;;;;;5132608;27;20019;-68
2021/03/22 04:27:57;;;;;;;2.63;1.10;;;;;;;;;;5131153;27;20335;-68
2021/03/22 04:30:23;;;;;;;0.88;0.88;;;;;;;;;;5112732;27;20027;-68
2021/03/22 04:32:51;;;;;;;0.60;0.60;;;;;;;;;;5132136;27;20102;-68
2021/03/22 04:35:17;;;;;;;1.35;0.82;;;;;;;;;;5132338;27;20023;-68
2021/03/22 04:37:43;;;;;;;0.98;0.80;;;;;;;;;;5131563;27;20019;-68
2021/03/22 04:40:10;;;;;;;0.68;0.68;;;;;;;;;;5130952;27;20035;-68
2021/03/22 04:42:36;;;;;;;1.00;0.95;;;;;;;;;;5131231;27;20037;-68
2021/03/22 04:45:03;;;;;;;0.82;0.82;;;;;;;;;;5132352;27;20055;-68
2021/03/22 04:47:29;;;;;;;0.95;0.95;;;;;;;;;;5131912;27;20129;-68
2021/03/22 04:49:55;;;;;;;0.85;0.85;;;;;;;;;;5131120;27;20031;-68
2021/03/22 04:52:21;;;;;;;1.02;0.90;;;;;;;;;;5131148;27;20063;-68
2021/03/22 04:54:47;;;;;;;1.63;1.50;;;;;;;;;;5131834;27;20027;-68
2021/03/22 04:57:14;;;;;;;1.35;1.33;;;;;;;;;;5130706;27;20023;-68
2021/03/22 04:59:40;;;;;;;0.85;0.85;;;;;;;;;;5130355;27;20116;-68
2021/03/22 05:02:06;;;;;;;1.45;1.10;;;;;;;;;;5130710;27;20027;-68
2021/03/22 05:04:32;;;;;;;3.28;1.83;;;;;;;;;;5131331;27;20026;-68
2021/03/22 05:06:59;;;;;;;1.17;1.00;;;;;;;;;;5131192;27;20023;-68
2021/03/22 05:09:25;;;;;;;0.63;0.63;;;;;;;;;;5131635;27;20030;-68
2021/03/22 05:11:51;;;;;;;0.73;0.73;;;;;;;;;;5130769;27;20076;-68
2021/03/22 05:14:17;;;;;;;0.88;0.88;;;;;;;;;;5130460;27;20039;-68
2021/03/22 05:16:43;;;;;;;0.90;0.70;;;;;;;;;;5130788;27;20078;-68
2021/03/22 05:19:09;;;;;;;0.63;0.63;;;;;;;;;;5130866;27;20023;-68
2021/03/22 05:21:35;;;;;;;1.02;0.95;;;;;;;;;;5130373;27;20122;-68
2021/03/22 05:24:01;;;;;;;0.75;0.75;;;;;;;;;;5131472;27;20030;-67
2021/03/22 05:26:27;;;;;;;1.15;1.05;;;;;;;;;;5131073;27;20027;-67
2021/03/22 05:28:53;;;;;;;1.05;0.82;;;;;;;;;;5129813;27;20058;-68
2021/03/22 05:31:19;;;;;;;0.98;0.98;;;;;;;;;;5130047;27;20035;-68
2021/03/22 05:33:45;;;;;;;0.80;0.80;;;;;;;;;;5130388;27;20023;-68
2021/03/22 05:36:11;;;;;;;0.88;0.73;;;;;;;;;;5130783;27;20066;-67
2021/03/22 05:38:38;;;;;;;0.85;0.80;;;;;;;;;;5130247;27;20026;-68
2021/03/22 05:41:09;;;;;;;1.63;1.10;;;;;;;;;;5129672;27;20027;-67
2021/03/22 05:43:42;;;;;;;0.80;0.75;;;;;;;;;;5130641;27;20033;-68
2021/03/22 05:46:08;;;;;;;0.65;0.65;;;;;;;;;;5130594;27;20019;-67
2021/03/22 05:48:42;;;;;;;1.38;1.00;;;;;;;;;;5130768;27;20292;-68
2021/03/22 05:51:11;;;;;;;0.85;0.75;;;;;;;;;;5130142;27;20446;-67
2021/03/22 05:53:52;;;;;;;1.40;0.90;;;;;;;;;;5130806;27;20497;-68
2021/03/22 05:56:26;;;;;;;0.75;0.75;;;;;;;;;;5129920;27;20450;-68
2021/03/22 05:59:04;;;;;;;1.17;1.08;;;;;;;;;;5125588;27;20036;-68
2021/03/22 06:01:42;;;;;;;0.95;0.95;;;;;;;;;;5109133;28;20120;-67
2021/03/22 06:04:18;;;;;;;0.85;0.63;;;;;;;;;;5108872;28;20034;-68
2021/03/22 06:06:45;;;;;;;1.50;0.93;;;;;;;;;;5109957;28;20027;-68
2021/03/22 06:09:30;;;;;;;0.98;0.93;;;;;;;;;;5109404;28;20093;-68
2021/03/22 06:11:57;;;;;;;0.88;0.88;;;;;;;;;;5109559;28;20252;-67
2021/03/22 06:14:28;;;;;;;1.10;0.80;;;;;;;;;;5109296;28;20035;-67
2021/03/22 06:17:00;;;;;;;0.55;0.55;;;;;;;;;;5109778;28;20027;-68
2021/03/22 06:19:28;;;;;;;0.98;0.88;;;;;;;;;;5109566;28;20036;-68
2021/03/22 06:21:54;;;;;;;1.63;1.10;;;;;;;;;;5109465;28;20032;-68
2021/03/22 06:24:22;;;;;;;0.70;0.65;;;;;;;;;;5108878;28;20039;-68
2021/03/22 06:26:49;;;;;;;0.90;0.90;;;;;;;;;;5091289;28;20027;-68
2021/03/22 06:29:27;;;;;;;0.73;0.73;;;;;;;;;;5107773;28;20504;-68
2021/03/22 06:31:55;;;;;;;0.88;0.82;;;;;;;;;;5109112;28;20032;-67
2021/03/22 06:34:28;;;;;;;1.13;0.80;;;;;;;;;;5108600;28;20713;-67
2021/03/22 06:36:55;;;;;;;0.77;0.60;;;;;;;;;;5109460;28;20049;-67
2021/03/22 06:39:21;;;;;;;0.50;0.50;;;;;;;;;;5126263;27;20027;-68
2021/03/22 06:41:51;;;;;;;1.13;1.00;;;;;;;;;;5129050;27;20023;-68
2021/03/22 06:44:32;;;;;;;3.08;1.58;;;;;;;;;;5128599;27;20473;-68
2021/03/22 06:47:03;;;;;;;2.17;2.03;;;;;;;;;;5101718;27;20115;-68
2021/03/22 06:49:36;;;;;;;3.88;3.53;;;;;;;;;;5095996;28;20035;-68
2021/03/22 06:52:05;;;;;;;1.83;1.73;;;;;;;;;;5104838;27;20027;-67
2021/03/22 06:54:37;;;;;;;1.45;1.35;;;;;;;;;;5128949;27;20546;-68
2021/03/22 06:57:06;;;;;;;3.13;1.13;;;;;;;;;;5106610;28;20095;-68
2021/03/22 06:59:33;;;;;;;1.50;1.40;;;;;;;;;;5106147;27;20039;-67
2021/03/22 07:02:11;;;;;;;1.30;1.17;;;;;;;;;;5096188;28;20556;-67
2021/03/22 07:04:38;;;;;;;0.95;0.90;;;;;;;;;;5097438;28;20024;-68
2021/03/22 07:07:16;;;;;;;0.82;0.82;;;;;;;;;;5087758;28;21790;-67
2021/03/22 07:09:54;;;;;;;3.03;2.13;;;;;;;;;;5086899;28;20109;-68
2021/03/22 07:12:39;;;;;;;1.35;1.23;;;;;;;;;;5091190;28;20101;-67
2021/03/22 07:15:26;;;;;;;2.45;1.05;;;;;;;;;;5085300;28;20111;-67
2021/03/22 07:18:11;;;;;;;0.80;0.70;;;;;;;;;;5080965;28;20092;-68
2021/03/22 07:20:37;;;;;;;1.95;1.77;;;;;;;;;;5105667;28;20422;-67
2021/03/22 07:23:29;;;;;;;5.57;2.63;;;;;;;;;;5098805;28;20032;-68
2021/03/22 07:26:06;;;;;;;2.38;1.17;;;;;;;;;;5086622;28;20031;-67
2021/03/22 07:28:50;;;;;;;2.67;1.63;;;;;;;;;;5084984;28;20044;-67
2021/03/22 07:31:16;;;;;;;1.25;1.15;;;;;;;;;;5090858;28;20043;-66
2021/03/22 07:33:57;;;;;;;2.55;1.55;;;;;;;;;;5089944;28;20141;-68
2021/03/22 07:36:31;;;;;;;4.28;1.38;;;;;;;;;;5085198;28;20089;-67
2021/03/22 07:39:27;;;;;;;2.95;1.92;;;;;;;;;;5087676;28;20506;-67
2021/03/22 07:41:58;;;;;;;1.50;1.38;;;;;;;;;;5004840;28;20093;-68
2021/03/22 07:44:32;;;;;;;2.38;1.90;;;;;;;;;;5101357;28;20084;-67
2021/03/22 07:46:58;;;;;;;;;;;;;;;;;;5093136;28;20483;-67
2021/03/22 07:49:30;;;;;;;3.75;2.38;;;;;;;;;;5091997;28;19910;-68
2021/03/22 07:52:08;;;;;;;3.92;1.85;;;;;;;;;;5086949;28;20028;-68
2021/03/22 07:54:40;;;;;;;3.00;2.03;;;;;;;;;;5085993;28;20067;-68
2021/03/22 07:57:08;;;;;;;2.30;2.10;;;;;;;;;;5094013;28;20038;-68
2021/03/22 07:59:37;;;;;;;6.50;3.72;;;;;;;;;;5102310;28;20514;-67
2021/03/22 08:02:14;;;;;;;1.92;1.83;;;;;;;;;;5092664;28;20698;-67
2021/03/22 08:04:41;;;;;;;4.00;2.58;;;;;;;;;;5083429;28;20027;-67
2021/03/22 08:07:21;;;;;;;3.90;2.22;;;;;;;;;;5086578;28;20055;-69
2021/03/22 08:09:56;;;;;;;3.35;3.08;;;;;;;;;;5090030;28;20028;-67
2021/03/22 08:12:22;;;;;;;3.40;2.35;;;;;;;;;;5090841;28;20032;-67
2021/03/22 08:14:48;;;;;;;2.53;2.10;;;;;;;;;;5088578;28;20065;-67
2021/03/22 08:17:32;;;;;;;5.53;1.95;;;;;;;;;;5085359;28;20433;-67
2021/03/22 08:20:11;;;;;;;2.40;2.17;;;;;;;;;;5090548;28;20032;-66
2021/03/22 08:22:55;;;;;;;2.97;2.33;;;;;;;;;;5090030;28;20205;-67
2021/03/22 08:25:35;;;;;;;3.30;2.15;;;;;;;;;;5092140;28;20118;-67
2021/03/22 08:28:01;;;;;;;2.63;2.20;;;;;;;;;;5092703;28;20066;-66
2021/03/22 08:30:47;;;;;;;2.70;2.50;;;;;;;;;;5089751;28;20070;-67
2021/03/22 08:33:46;;;;;;;3.25;1.92;;;;;;;;;;5081280;28;20032;-67
2021/03/22 08:36:30;;;;;;;5.30;2.47;;;;;;;;;;5036496;28;20116;-67
2021/03/22 08:39:01;;;;;;;3.10;2.80;;;;;;;;;;5087247;28;20103;-67
2021/03/22 08:41:36;;;;;;;2.42;2.22;;;;;;;;;;5086682;28;20068;-67
2021/03/22 08:44:09;;;;;;;2.35;1.90;;;;;;;;;;5065394;28;20085;-67
2021/03/22 08:46:35;;;;;;;3.72;2.28;;;;;;;;;;5080289;28;21920;-67
2021/03/22 08:49:02;;;;;;;4.78;3.03;;;;;;;;;;5081363;28;20044;-67
2021/03/22 08:51:29;;;;;;;2.95;2.65;;;;;;;;;;5091538;28;20036;-68
2021/03/22 08:53:58;;;;;;;3.78;2.17;;;;;;;;;;5090925;28;20039;-67
2021/03/22 08:56:24;;;;;;;4.25;2.50;;;;;;;;;;5096880;28;20078;-68
2021/03/22 08:58:52;;;;;;;2.10;1.70;;;;;;;;;;5109264;27;20069;-67
2021/03/22 09:01:24;;;;;;;1.85;1.42;;;;;;;;;;5117279;27;20462;-67
2021/03/22 09:03:51;;;;;;;1.98;1.58;;;;;;;;;;5120036;27;20095;-68
2021/03/22 09:06:27;;;;;;;2.22;2.03;;;;;;;;;;5125832;27;20034;-68
2021/03/22 09:08:54;;;;;;;1.60;1.25;;;;;;;;;;5121706;27;20106;-68
2021/03/22 09:11:26;;;;;;;1.73;1.63;;;;;;;;;;5118625;27;20074;-67
2021/03/22 09:13:55;;;;;;;2.63;2.33;;;;;;;;;;5126066;27;20035;-67
2021/03/22 09:16:24;;;;;;;2.60;1.25;;;;;;;;;;5121585;27;20051;-68
2021/03/22 09:19:04;;;;;;;2.10;1.80;;;;;;;;;;5130878;27;20103;-67
2021/03/22 09:21:30;;;;;;;2.95;1.88;;;;;;;;;;5125508;27;20034;-67
2021/03/22 09:23:56;;;;;;;1.95;1.60;;;;;;;;;;5126782;27;20065;-67
2021/03/22 09:26:41;;;;;;;2.28;2.00;;;;;;;;;;5124780;27;20457;-68
2021/03/22 09:29:25;;;;;;;1.88;1.67;;;;;;;;;;5119477;27;20047;-68
2021/03/22 09:31:52;;;;;;;4.97;1.70;;;;;;;;;;5112629;27;20027;-67
2021/03/22 09:34:18;;;;;;;1.67;1.58;;;;;;;;;;5119835;27;20039;-67
2021/03/22 09:36:49;;;;;;;5.40;2.20;;;;;;;;;;5124286;27;20019;-67
2021/03/22 09:39:15;;;;;;;2.60;1.85;;;;;;;;;;5122549;27;20084;-67
2021/03/22 09:41:53;;;;;;;2.60;1.48;;;;;;;;;;5125502;27;20043;-67
2021/03/22 09:44:25;;;;;;;2.53;1.73;;;;;;;;;;5121851;27;20122;-67
2021/03/22 09:47:05;;;;;;;1.50;1.30;;;;;;;;;;5123184;27;20501;-66
2021/03/22 09:49:33;;;;;;;3.20;2.47;;;;;;;;;;5119099;27;20047;-67
2021/03/22 09:52:16;;;;;;;2.53;2.33;;;;;;;;;;5122510;27;20070;-67
2021/03/22 09:54:43;;;;;;;3.25;1.60;;;;;;;;;;5121626;27;20023;-67
2021/03/22 09:57:13;;;;;;;1.50;1.25;;;;;;;;;;5126022;27;20106;-67
2021/03/22 09:59:59;;;;;;;1.77;1.52;;;;;;;;;;5109138;27;20047;-67
2021/03/22 10:02:31;;;;;;;2.22;1.98;;;;;;;;;;5108439;27;20462;-68
2021/03/22 10:05:07;;;;;;;2.63;1.75;;;;;;;;;;5112968;27;20023;-67
2021/03/22 10:07:36;;;;;;;4.68;1.50;;;;;;;;;;5106416;27;20035;-67
2021/03/22 10:10:21;;;;;;;1.55;1.23;;;;;;;;;;5095763;27;20053;-67
2021/03/22 10:13:00;;;;;;;2.45;1.30;;;;;;;;;;5109726;27;20034;-68
2021/03/22 10:15:31;;;;;;;1.58;1.00;;;;;;;;;;5113947;27;20030;-68
2021/03/22 10:17:58;;;;;;;1.90;1.10;;;;;;;;;;5120508;27;20153;-67
2021/03/22 10:20:36;;;;;;;4.72;1.23;;;;;;;;;;5119095;27;20176;-70
2021/03/22 10:23:05;;;;;;;0.95;0.93;;;;;;;;;;5118524;27;20413;-67
2021/03/22 10:25:32;;;;;;;1.85;1.65;;;;;;;;;;5109910;27;20084;-68
2021/03/22 10:28:00;;;;;;;1.92;1.38;;;;;;;;;;5108094;27;20054;-67
2021/03/22 10:30:26;;;;;;;2.90;1.38;;;;;;;;;;5106711;27;20493;-67
2021/03/22 10:33:02;;;;;;;5.05;1.50;;;;;;;;;;5110585;27;20019;-67
2021/03/22 10:35:38;;;;;;;1.13;1.05;;;;;;;;;;5110026;27;20114;-68
2021/03/22 10:38:05;;;;;;;2.38;1.23;;;;;;;;;;5111181;27;20031;-67
2021/03/22 10:40:35;;;;;;;3.50;1.55;;;;;;;;;;5112248;27;20041;-67
2021/03/22 10:43:03;;;;;;;1.95;1.38;;;;;;;;;;5094393;27;20043;-67
2021/03/22 10:45:29;;;;;;;5.35;1.65;;;;;;;;;;5119326;27;20027;-66
2021/03/22 10:47:56;;;;;;;1.83;1.73;;;;;;;;;;5116995;27;20532;-67
2021/03/22 10:50:28;;;;;;;2.88;2.17;;;;;;;;;;5110436;27;20033;-67
2021/03/22 10:53:03;;;;;;;4.22;1.67;;;;;;;;;;5113870;27;20027;-68
2021/03/22 10:55:30;;;;;;;1.90;1.33;;;;;;;;;;5113423;27;20058;-71
2021/03/22 10:57:57;;;;;;;1.08;0.88;;;;;;;;;;5114716;27;20038;-67
2021/03/22 11:00:23;;;;;;;2.10;1.02;;;;;;;;;;5113923;27;20111;-67
2021/03/22 11:02:50;;;;;;;3.05;1.42;;;;;;;;;;5105847;27;20055;-67
2021/03/22 11:05:18;;;;;;;9.00;1.75;;;;;;;;;;5113977;27;20015;-67
2021/03/22 11:07:53;;;;;;;3.25;1.27;;;;;;;;;;5107043;27;20731;-67
2021/03/22 11:10:21;;;;;;;2.80;1.02;;;;;;;;;;5113142;27;20046;-67
2021/03/22 11:12:49;;;;;;;3.88;2.72;;;;;;;;;;5118551;27;20541;-67
2021/03/22 11:15:41;;;;;;;0.93;0.90;;;;;;;;;;5104383;27;20092;-67
2021/03/22 11:18:07;;;;;;;1.33;1.27;;;;;;;;;;5107631;27;20040;-67
2021/03/22 11:20:34;;;;;;;1.52;1.42;;;;;;;;;;5117819;27;20031;-67
2021/03/22 11:23:15;;;;;;;1.92;1.20;;;;;;;;;;5114152;27;20479;-67
2021/03/22 11:25:41;;;;;;;2.83;2.45;;;;;;;;;;5117469;27;20035;-68
2021/03/22 11:28:09;;;;;;;2.08;1.38;;;;;;;;;;5108010;27;20130;-68
2021/03/22 11:30:40;;;;;;;2.47;1.50;;;;;;;;;;5114463;27;20096;-68
2021/03/22 11:33:16;;;;;;;1.10;1.00;;;;;;;;;;5111468;27;20046;-67
2021/03/22 11:35:44;;;;;;;2.10;1.70;;;;;;;;;;5114756;27;20120;-68
2021/03/22 11:38:20;;;;;;;2.28;1.10;;;;;;;;;;5106132;27;20543;-68
2021/03/22 11:40:47;;;;;;;1.80;0.90;;;;;;;;;;5109683;27;20593;-68
2021/03/22 11:43:27;;;;;;;1.50;1.15;;;;;;;;;;5111139;27;20481;-68
2021/03/22 11:45:53;;;;;;;1.48;1.38;;;;;;;;;;5111165;27;20031;-68
2021/03/22 11:48:22;;;;;;;1.25;1.23;;;;;;;;;;5116773;27;21022;-68
2021/03/22 11:50:54;;;;;;;1.25;1.08;;;;;;;;;;5117379;28;20106;-68
2021/03/22 11:53:24;;;;;;;2.05;1.52;;;;;;;;;;5107778;28;20441;-68
2021/03/22 11:55:55;;;;;;;0.88;0.88;;;;;;;;;;5102510;28;20948;-67
2021/03/22 11:58:31;;;;;;;1.95;1.48;;;;;;;;;;5103636;27;20082;-67
2021/03/22 12:01:17;;;;;;;1.15;1.05;;;;;;;;;;5119664;27;20114;-67
2021/03/22 12:03:44;;;;;;;1.42;1.13;;;;;;;;;;5109582;27;20490;-68
2021/03/22 12:06:14;;;;;;;2.60;1.42;;;;;;;;;;5108335;27;20056;-68
2021/03/22 12:08:48;;;;;;;1.55;1.45;;;;;;;;;;5110403;27;20093;-68
2021/03/22 12:11:18;;;;;;;2.50;2.30;;;;;;;;;;5118316;27;20479;-67
2021/03/22 12:13:47;;;;;;;5.60;1.58;;;;;;;;;;5118596;27;20544;-68
2021/03/22 12:16:18;;;;;;;1.98;1.38;;;;;;;;;;5097042;28;20651;-68
2021/03/22 12:18:44;;;;;;;1.13;1.00;;;;;;;;;;5105248;27;20031;-68
2021/03/22 12:21:12;;;;;;;1.98;1.55;;;;;;;;;;5119773;27;20031;-67
2021/03/22 12:23:39;;;;;;;3.22;1.75;;;;;;;;;;5121510;27;20031;-67
2021/03/22 12:26:05;;;;;;;2.65;1.73;;;;;;;;;;5097900;28;20035;-67
2021/03/22 12:28:31;;;;;;;2.45;1.50;;;;;;;;;;5127053;27;20043;-69
2021/03/22 12:30:58;;;;;;;1.90;1.70;;;;;;;;;;5115207;27;20071;-69
2021/03/22 12:33:27;;;;;;;2.13;1.42;;;;;;;;;;5116649;27;20023;-69
2021/03/22 12:35:53;;;;;;;3.50;2.05;;;;;;;;;;5119841;27;20031;-69
2021/03/22 12:38:19;;;;;;;2.83;2.50;;;;;;;;;;5120934;27;20400;-69
2021/03/22 12:40:46;;;;;;;4.15;1.63;;;;;;;;;;5133426;27;20018;-68
2021/03/22 12:43:28;;;;;;;5.88;2.08;;;;;;;;;;5121874;27;20031;-68
2021/03/22 12:45:54;;;;;;;1.75;1.30;;;;;;;;;;5129649;27;20026;-68
2021/03/22 12:48:21;;;;;;;2.33;2.13;;;;;;;;;;5127770;27;20089;-68
2021/03/22 12:50:49;;;;;;;2.42;2.22;;;;;;;;;;5126549;27;20134;-68
2021/03/22 12:53:15;;;;;;;2.83;1.85;;;;;;;;;;5122746;27;20108;-68
2021/03/22 12:55:41;;;;;;;2.10;1.90;;;;;;;;;;5128149;27;20043;-68
2021/03/22 12:58:23;;;;;;;2.50;1.95;;;;;;;;;;5121742;27;20019;-67
2021/03/22 13:00:51;;;;;;;2.22;2.03;;;;;;;;;;5108103;28;20489;-67
2021/03/22 13:03:20;;;;;;;1.63;1.52;;;;;;;;;;5095803;28;20066;-67
2021/03/22 13:05:46;;;;;;;1.73;1.60;;;;;;;;;;5107762;28;20047;-68
2021/03/22 13:08:12;;;;;;;3.00;1.30;;;;;;;;;;5100976;28;20267;-68
2021/03/22 13:10:38;;;;;;;2.70;1.90;;;;;;;;;;5088683;28;20032;-68
2021/03/22 13:13:05;;;;;;;1.92;1.50;;;;;;;;;;5091780;28;20104;-68
2021/03/22 13:15:39;;;;;;;2.05;1.90;;;;;;;;;;5075970;28;20127;-68
2021/03/22 13:18:16;;;;;;;1.85;1.70;;;;;;;;;;5092614;28;20126;-68
2021/03/22 13:20:43;;;;;;;3.15;1.85;;;;;;;;;;5088431;28;20032;-68
2021/03/22 13:23:10;;;;;;;1.73;1.63;;;;;;;;;;5086722;28;20058;-68
2021/03/22 13:25:37;;;;;;;2.22;1.58;;;;;;;;;;5091515;28;20032;-68
2021/03/22 13:28:04;;;;;;;2.08;1.92;;;;;;;;;;5086609;28;20032;-67
2021/03/22 13:30:30;;;;;;;1.58;1.35;;;;;;;;;;5088300;28;20016;-68
2021/03/22 13:32:56;;;;;;;2.08;1.80;;;;;;;;;;5087952;28;20031;-68
2021/03/22 13:35:24;;;;;;;3.13;1.88;;;;;;;;;;5096801;28;20031;-68
2021/03/22 13:37:50;;;;;;;1.17;1.13;;;;;;;;;;5100763;28;20020;-67
2021/03/22 13:40:17;;;;;;;1.88;1.65;;;;;;;;;;5099063;28;20114;-67
2021/03/22 13:42:43;;;;;;;4.13;1.35;;;;;;;;;;5090025;28;20039;-68
2021/03/22 13:45:19;;;;;;;4.22;1.42;;;;;;;;;;5097705;28;20032;-68
2021/03/22 13:47:45;;;;;;;1.75;1.30;;;;;;;;;;5087370;28;20439;-68
2021/03/22 13:50:11;;;;;;;1.00;0.90;;;;;;;;;;5095772;28;20428;-68
2021/03/22 13:52:38;;;;;;;3.88;1.58;;;;;;;;;;5090377;28;20024;-68
2021/03/22 13:55:04;;;;;;;1.75;1.50;;;;;;;;;;5086825;28;20074;-68
2021/03/22 13:57:30;;;;;;;1.67;1.58;;;;;;;;;;5086717;28;20031;-68
2021/03/22 13:59:56;;;;;;;2.55;1.15;;;;;;;;;;5120550;27;20050;-67
2021/03/22 14:02:22;;;;;;;2.38;1.02;;;;;;;;;;5127254;27;20038;-68
2021/03/22 14:04:48;;;;;;;1.42;1.17;;;;;;;;;;5127254;27;20029;-68
2021/03/22 14:07:15;;;;;;;1.33;1.20;;;;;;;;;;5127223;27;20035;-68
2021/03/22 14:09:41;;;;;;;3.05;1.63;;;;;;;;;;5109831;27;20059;-68
2021/03/22 14:12:07;;;;;;;2.50;1.55;;;;;;;;;;5106127;28;20091;-67
2021/03/22 14:14:34;;;;;;;1.80;1.27;;;;;;;;;;5121484;27;20083;-67
2021/03/22 14:17:00;;;;;;;1.10;1.10;;;;;;;;;;5126565;27;20046;-68
2021/03/22 14:19:27;;;;;;;1.70;1.50;;;;;;;;;;5112996;27;20024;-68
2021/03/22 14:21:53;;;;;;;2.42;1.10;;;;;;;;;;5115985;27;20044;-68
2021/03/22 14:24:19;;;;;;;1.92;1.73;;;;;;;;;;5126842;27;20069;-68
2021/03/22 14:26:45;;;;;;;2.22;2.03;;;;;;;;;;5128604;27;20381;-68
2021/03/22 14:29:11;;;;;;;1.70;1.60;;;;;;;;;;5125274;27;20039;-67
2021/03/22 14:31:37;;;;;;;1.73;1.48;;;;;;;;;;5127903;27;20097;-68
2021/03/22 14:34:04;;;;;;;5.32;1.70;;;;;;;;;;5126634;27;20015;-68
2021/03/22 14:36:32;;;;;;;4.25;1.55;;;;;;;;;;5128470;27;20065;-68
2021/03/22 14:39:00;;;;;;;1.48;1.38;;;;;;;;;;5127024;27;20031;-67
2021/03/22 14:41:26;;;;;;;2.92;1.77;;;;;;;;;;5115490;27;20032;-68
2021/03/22 14:43:53;;;;;;;3.15;1.70;;;;;;;;;;5115649;27;20026;-68
2021/03/22 14:46:19;;;;;;;1.25;1.15;;;;;;;;;;5120015;27;20023;-69
2021/03/22 14:48:45;;;;;;;2.50;1.88;;;;;;;;;;5127011;27;20035;-68
2021/03/22 14:51:11;;;;;;;1.63;1.52;;;;;;;;;;5125619;27;20098;-68
2021/03/22 14:53:38;;;;;;;3.63;1.75;;;;;;;;;;5126251;27;20034;-68
2021/03/22 14:56:05;;;;;;;2.17;1.50;;;;;;;;;;5115943;27;20027;-68
2021/03/22 14:58:31;;;;;;;1.80;1.60;;;;;;;;;;5122216;27;20199;-68